sensor_id;sensor_type;location;lat;lon;timestamp;pressure;altitude;pressure_sealevel;temperature
15062;BMP180;7630;50.306;8.566;2023-09-18T00:03:50;97255.00;;;22.10
15062;BMP180;7630;50.306;8.566;2023-09-18T00:07:52;97262.00;;;21.80
15062;BMP180;7630;50.306;8.566;2023-09-18T00:11:53;97249.00;;;21.90
15062;BMP180;7630;50.306;8.566;2023-09-18T00:15:55;97249.00;;;22.10
15062;BMP180;7630;50.306;8.566;2023-09-18T00:19:56;97241.00;;;22.10
15062;BMP180;7630;50.306;8.566;2023-09-18T00:23:57;97222.00;;;22.20
15062;BMP180;7630;50.306;8.566;2023-09-18T00:27:59;97228.00;;;22.10
15062;BMP180;7630;50.306;8.566;2023-09-18T00:32:00;97218.00;;;22.40
15062;BMP180;7630;50.306;8.566;2023-09-18T00:36:01;97216.00;;;22.20
15062;BMP180;7630;50.306;8.566;2023-09-18T00:40:03;97225.00;;;22.50
15062;BMP180;7630;50.306;8.566;2023-09-18T00:44:06;97211.00;;;22.70
15062;BMP180;7630;50.306;8.566;2023-09-18T00:48:08;97201.00;;;22.70
15062;BMP180;7630;50.306;8.566;2023-09-18T00:52:09;97198.00;;;22.80
15062;BMP180;7630;50.306;8.566;2023-09-18T00:56:12;97192.00;;;22.80
15062;BMP180;7630;50.306;8.566;2023-09-18T01:00:13;97186.00;;;22.70
15062;BMP180;7630;50.306;8.566;2023-09-18T01:04:17;97185.00;;;22.90
15062;BMP180;7630;50.306;8.566;2023-09-18T01:08:18;97186.00;;;22.70
15062;BMP180;7630;50.306;8.566;2023-09-18T01:12:33;97179.00;;;22.70
15062;BMP180;7630;50.306;8.566;2023-09-18T01:16:46;97172.00;;;22.60
15062;BMP180;7630;50.306;8.566;2023-09-18T01:20:44;97167.00;;;22.60
15062;BMP180;7630;50.306;8.566;2023-09-18T01:24:47;97169.00;;;22.70
15062;BMP180;7630;50.306;8.566;2023-09-18T01:28:49;97181.00;;;22.70
15062;BMP180;7630;50.306;8.566;2023-09-18T01:32:51;97171.00;;;22.70
15062;BMP180;7630;50.306;8.566;2023-09-18T01:36:56;97172.00;;;22.70
15062;BMP180;7630;50.306;8.566;2023-09-18T01:40:58;97160.00;;;23.00
15062;BMP180;7630;50.306;8.566;2023-09-18T01:44:59;97146.00;;;23.20
15062;BMP180;7630;50.306;8.566;2023-09-18T01:49:00;97160.00;;;23.10
15062;BMP180;7630;50.306;8.566;2023-09-18T01:53:02;97156.00;;;23.20
15062;BMP180;7630;50.306;8.566;2023-09-18T01:57:04;97147.00;;;23.30
15062;BMP180;7630;50.306;8.566;2023-09-18T02:01:05;97152.00;;;23.00
15062;BMP180;7630;50.306;8.566;2023-09-18T02:05:07;97129.00;;;23.20
15062;BMP180;7630;50.306;8.566;2023-09-18T02:09:10;97146.00;;;22.90
15062;BMP180;7630;50.306;8.566;2023-09-18T02:13:11;97141.00;;;23.10
15062;BMP180;7630;50.306;8.566;2023-09-18T02:17:13;97133.00;;;23.50
15062;BMP180;7630;50.306;8.566;2023-09-18T02:21:19;97140.00;;;23.60
15062;BMP180;7630;50.306;8.566;2023-09-18T02:25:20;97142.00;;;23.70
15062;BMP180;7630;50.306;8.566;2023-09-18T02:29:22;97171.00;;;23.20
15062;BMP180;7630;50.306;8.566;2023-09-18T02:33:23;97180.00;;;22.00
15062;BMP180;7630;50.306;8.566;2023-09-18T02:37:26;97166.00;;;22.00
15062;BMP180;7630;50.306;8.566;2023-09-18T02:41:27;97165.00;;;21.70
15062;BMP180;7630;50.306;8.566;2023-09-18T02:45:28;97177.00;;;22.00
15062;BMP180;7630;50.306;8.566;2023-09-18T02:49:30;97157.00;;;22.40
15062;BMP180;7630;50.306;8.566;2023-09-18T02:53:31;97153.00;;;22.60
15062;BMP180;7630;50.306;8.566;2023-09-18T02:57:32;97144.00;;;22.00
15062;BMP180;7630;50.306;8.566;2023-09-18T03:01:33;97127.00;;;22.50
15062;BMP180;7630;50.306;8.566;2023-09-18T03:05:35;97127.00;;;22.30
15062;BMP180;7630;50.306;8.566;2023-09-18T03:09:36;97121.00;;;21.80
15062;BMP180;7630;50.306;8.566;2023-09-18T03:13:37;97117.00;;;21.90
15062;BMP180;7630;50.306;8.566;2023-09-18T03:17:38;97088.00;;;22.00
15062;BMP180;7630;50.306;8.566;2023-09-18T03:21:41;97082.00;;;21.30
15062;BMP180;7630;50.306;8.566;2023-09-18T03:25:42;97078.00;;;21.20
15062;BMP180;7630;50.306;8.566;2023-09-18T03:29:45;97083.00;;;21.40
15062;BMP180;7630;50.306;8.566;2023-09-18T03:33:46;97062.00;;;21.30
15062;BMP180;7630;50.306;8.566;2023-09-18T03:37:50;97052.00;;;21.60
15062;BMP180;7630;50.306;8.566;2023-09-18T03:41:51;97043.00;;;21.70
15062;BMP180;7630;50.306;8.566;2023-09-18T03:45:52;97045.00;;;21.10
15062;BMP180;7630;50.306;8.566;2023-09-18T03:49:54;97049.00;;;21.10
15062;BMP180;7630;50.306;8.566;2023-09-18T03:53:55;97056.00;;;21.60
15062;BMP180;7630;50.306;8.566;2023-09-18T03:57:57;97054.00;;;21.60
15062;BMP180;7630;50.306;8.566;2023-09-18T04:01:58;97063.00;;;21.50
15062;BMP180;7630;50.306;8.566;2023-09-18T04:05:59;97073.00;;;21.40
15062;BMP180;7630;50.306;8.566;2023-09-18T04:10:00;97067.00;;;21.80
15062;BMP180;7630;50.306;8.566;2023-09-18T04:14:02;97062.00;;;21.80
15062;BMP180;7630;50.306;8.566;2023-09-18T04:18:06;97061.00;;;21.60
15062;BMP180;7630;50.306;8.566;2023-09-18T04:22:07;97057.00;;;21.60
15062;BMP180;7630;50.306;8.566;2023-09-18T04:26:09;97042.00;;;21.50
15062;BMP180;7630;50.306;8.566;2023-09-18T04:30:11;97047.00;;;21.40
15062;BMP180;7630;50.306;8.566;2023-09-18T04:34:12;97054.00;;;21.40
15062;BMP180;7630;50.306;8.566;2023-09-18T04:38:13;97074.00;;;21.60
15062;BMP180;7630;50.306;8.566;2023-09-18T04:42:16;97062.00;;;21.30
15062;BMP180;7630;50.306;8.566;2023-09-18T04:46:17;97070.00;;;21.70
15062;BMP180;7630;50.306;8.566;2023-09-18T04:50:19;97064.00;;;21.50
15062;BMP180;7630;50.306;8.566;2023-09-18T04:54:20;97073.00;;;21.70
15062;BMP180;7630;50.306;8.566;2023-09-18T04:58:21;97047.00;;;22.00
15062;BMP180;7630;50.306;8.566;2023-09-18T05:02:23;97053.00;;;22.10
15062;BMP180;7630;50.306;8.566;2023-09-18T05:06:26;97041.00;;;22.40
15062;BMP180;7630;50.306;8.566;2023-09-18T05:10:27;97016.00;;;22.80
15062;BMP180;7630;50.306;8.566;2023-09-18T05:14:28;97012.00;;;23.30
15062;BMP180;7630;50.306;8.566;2023-09-18T05:18:29;97031.00;;;23.10
15062;BMP180;7630;50.306;8.566;2023-09-18T05:22:30;97039.00;;;22.90
15062;BMP180;7630;50.306;8.566;2023-09-18T05:26:31;97044.00;;;22.70
15062;BMP180;7630;50.306;8.566;2023-09-18T05:30:34;97051.00;;;22.20
15062;BMP180;7630;50.306;8.566;2023-09-18T05:34:36;97069.00;;;22.20
15062;BMP180;7630;50.306;8.566;2023-09-18T05:38:37;97073.00;;;21.80
15062;BMP180;7630;50.306;8.566;2023-09-18T05:42:40;97078.00;;;21.50
15062;BMP180;7630;50.306;8.566;2023-09-18T05:46:43;97076.00;;;21.90
15062;BMP180;7630;50.306;8.566;2023-09-18T05:50:44;97067.00;;;21.50
15062;BMP180;7630;50.306;8.566;2023-09-18T05:54:45;97074.00;;;21.40
15062;BMP180;7630;50.306;8.566;2023-09-18T05:58:46;97069.00;;;20.60
15062;BMP180;7630;50.306;8.566;2023-09-18T06:02:47;97057.00;;;21.10
15062;BMP180;7630;50.306;8.566;2023-09-18T06:06:49;97067.00;;;21.30
15062;BMP180;7630;50.306;8.566;2023-09-18T06:10:50;97052.00;;;21.30
15062;BMP180;7630;50.306;8.566;2023-09-18T06:14:52;97062.00;;;21.40
15062;BMP180;7630;50.306;8.566;2023-09-18T06:18:53;97058.00;;;21.60
15062;BMP180;7630;50.306;8.566;2023-09-18T06:22:56;97054.00;;;21.60
15062;BMP180;7630;50.306;8.566;2023-09-18T06:26:57;97050.00;;;21.90
15062;BMP180;7630;50.306;8.566;2023-09-18T06:30:58;97058.00;;;21.60
15062;BMP180;7630;50.306;8.566;2023-09-18T06:35:00;97056.00;;;21.20
15062;BMP180;7630;50.306;8.566;2023-09-18T06:39:02;97058.00;;;22.10
15062;BMP180;7630;50.306;8.566;2023-09-18T06:43:04;97049.00;;;21.50
15062;BMP180;7630;50.306;8.566;2023-09-18T06:47:05;97049.00;;;21.30
15062;BMP180;7630;50.306;8.566;2023-09-18T06:51:06;97066.00;;;21.70
15062;BMP180;7630;50.306;8.566;2023-09-18T06:55:08;97056.00;;;21.30
15062;BMP180;7630;50.306;8.566;2023-09-18T06:59:09;97061.00;;;21.90
15062;BMP180;7630;50.306;8.566;2023-09-18T07:03:10;97077.00;;;22.00
15062;BMP180;7630;50.306;8.566;2023-09-18T07:07:13;97088.00;;;21.70
15062;BMP180;7630;50.306;8.566;2023-09-18T07:11:15;97081.00;;;21.30
15062;BMP180;7630;50.306;8.566;2023-09-18T07:15:17;97091.00;;;21.30
15062;BMP180;7630;50.306;8.566;2023-09-18T07:19:18;97088.00;;;21.20
15062;BMP180;7630;50.306;8.566;2023-09-18T07:23:19;97089.00;;;21.30
15062;BMP180;7630;50.306;8.566;2023-09-18T07:27:20;97093.00;;;21.00
15062;BMP180;7630;50.306;8.566;2023-09-18T07:31:21;97088.00;;;21.40
15062;BMP180;7630;50.306;8.566;2023-09-18T07:35:22;97105.00;;;21.50
15062;BMP180;7630;50.306;8.566;2023-09-18T07:39:23;97111.00;;;21.10
15062;BMP180;7630;50.306;8.566;2023-09-18T07:43:25;97110.00;;;21.60
15062;BMP180;7630;50.306;8.566;2023-09-18T07:47:26;97100.00;;;21.60
15062;BMP180;7630;50.306;8.566;2023-09-18T07:51:27;97104.00;;;21.90
15062;BMP180;7630;50.306;8.566;2023-09-18T07:55:28;97113.00;;;22.30
15062;BMP180;7630;50.306;8.566;2023-09-18T07:59:30;97101.00;;;22.30
15062;BMP180;7630;50.306;8.566;2023-09-18T08:03:32;97109.00;;;21.90
15062;BMP180;7630;50.306;8.566;2023-09-18T08:07:35;97102.00;;;21.90
15062;BMP180;7630;50.306;8.566;2023-09-18T08:11:36;97104.00;;;22.50
15062;BMP180;7630;50.306;8.566;2023-09-18T08:15:39;97134.00;;;22.40
15062;BMP180;7630;50.306;8.566;2023-09-18T08:19:40;97137.00;;;22.50
15062;BMP180;7630;50.306;8.566;2023-09-18T08:23:41;97134.00;;;22.70
15062;BMP180;7630;50.306;8.566;2023-09-18T08:27:43;97137.00;;;22.40
15062;BMP180;7630;50.306;8.566;2023-09-18T08:31:46;97139.00;;;23.00
15062;BMP180;7630;50.306;8.566;2023-09-18T08:35:48;97136.00;;;23.10
15062;BMP180;7630;50.306;8.566;2023-09-18T08:39:50;97146.00;;;23.50
15062;BMP180;7630;50.306;8.566;2023-09-18T08:43:52;97140.00;;;23.20
15062;BMP180;7630;50.306;8.566;2023-09-18T08:47:54;97144.00;;;23.80
15062;BMP180;7630;50.306;8.566;2023-09-18T08:51:57;97146.00;;;24.00
15062;BMP180;7630;50.306;8.566;2023-09-18T08:56:01;97144.00;;;22.50
15062;BMP180;7630;50.306;8.566;2023-09-18T09:00:06;97145.00;;;23.70
15062;BMP180;7630;50.306;8.566;2023-09-18T09:04:08;97157.00;;;23.20
15062;BMP180;7630;50.306;8.566;2023-09-18T09:08:09;97141.00;;;23.70
15062;BMP180;7630;50.306;8.566;2023-09-18T09:12:10;97138.00;;;23.70
15062;BMP180;7630;50.306;8.566;2023-09-18T09:16:12;97149.00;;;23.90
15062;BMP180;7630;50.306;8.566;2023-09-18T09:20:15;97135.00;;;23.60
15062;BMP180;7630;50.306;8.566;2023-09-18T09:24:16;97143.00;;;23.80
15062;BMP180;7630;50.306;8.566;2023-09-18T09:28:30;97148.00;;;23.90
15062;BMP180;7630;50.306;8.566;2023-09-18T09:32:32;97154.00;;;23.80
15062;BMP180;7630;50.306;8.566;2023-09-18T09:36:34;97146.00;;;23.40
15062;BMP180;7630;50.306;8.566;2023-09-18T09:40:38;97167.00;;;24.10
15062;BMP180;7630;50.306;8.566;2023-09-18T09:44:41;97158.00;;;24.00
15062;BMP180;7630;50.306;8.566;2023-09-18T09:49:02;97165.00;;;23.50
15062;BMP180;7630;50.306;8.566;2023-09-18T09:53:03;97184.00;;;23.10
15062;BMP180;7630;50.306;8.566;2023-09-18T09:57:05;97191.00;;;23.10
15062;BMP180;7630;50.306;8.566;2023-09-18T10:01:08;97196.00;;;22.40
15062;BMP180;7630;50.306;8.566;2023-09-18T10:05:11;97206.00;;;22.90
15062;BMP180;7630;50.306;8.566;2023-09-18T10:09:14;97225.00;;;22.80
15062;BMP180;7630;50.306;8.566;2023-09-18T10:13:32;97193.00;;;23.40
15062;BMP180;7630;50.306;8.566;2023-09-18T10:17:33;97188.00;;;23.30
15062;BMP180;7630;50.306;8.566;2023-09-18T10:22:24;97189.00;;;23.60
15062;BMP180;7630;50.306;8.566;2023-09-18T10:25:42;97221.00;;;24.40
15062;BMP180;7630;50.306;8.566;2023-09-18T10:29:44;97234.00;;;24.00
15062;BMP180;7630;50.306;8.566;2023-09-18T10:33:49;97213.00;;;24.20
15062;BMP180;7630;50.306;8.566;2023-09-18T10:37:53;97202.00;;;23.90
15062;BMP180;7630;50.306;8.566;2023-09-18T10:41:56;97204.00;;;25.00
15062;BMP180;7630;50.306;8.566;2023-09-18T10:46:02;97203.00;;;23.80
15062;BMP180;7630;50.306;8.566;2023-09-18T10:50:04;97191.00;;;24.40
15062;BMP180;7630;50.306;8.566;2023-09-18T10:54:10;97196.00;;;24.30
15062;BMP180;7630;50.306;8.566;2023-09-18T10:58:22;97200.00;;;23.60
15062;BMP180;7630;50.306;8.566;2023-09-18T11:02:18;97202.00;;;23.20
15062;BMP180;7630;50.306;8.566;2023-09-18T11:06:20;97191.00;;;23.70
15062;BMP180;7630;50.306;8.566;2023-09-18T11:10:26;97189.00;;;25.10
15062;BMP180;7630;50.306;8.566;2023-09-18T11:14:49;97182.00;;;23.60
15062;BMP180;7630;50.306;8.566;2023-09-18T11:18:53;97199.00;;;23.70
15062;BMP180;7630;50.306;8.566;2023-09-18T11:23:09;97209.00;;;24.00
15062;BMP180;7630;50.306;8.566;2023-09-18T11:27:02;97203.00;;;22.80
15062;BMP180;7630;50.306;8.566;2023-09-18T11:31:04;97221.00;;;23.50
15062;BMP180;7630;50.306;8.566;2023-09-18T11:35:07;97224.00;;;23.10
15062;BMP180;7630;50.306;8.566;2023-09-18T11:39:08;97217.00;;;23.30
15062;BMP180;7630;50.306;8.566;2023-09-18T11:47:30;97217.00;;;24.30
15062;BMP180;7630;50.306;8.566;2023-09-18T11:51:34;97209.00;;;24.30
15062;BMP180;7630;50.306;8.566;2023-09-18T11:55:37;97208.00;;;24.60
15062;BMP180;7630;50.306;8.566;2023-09-18T11:59:42;97212.00;;;24.20
15062;BMP180;7630;50.306;8.566;2023-09-18T12:03:46;97219.00;;;23.90
15062;BMP180;7630;50.306;8.566;2023-09-18T12:07:50;97204.00;;;24.10
15062;BMP180;7630;50.306;8.566;2023-09-18T12:11:52;97214.00;;;24.80
15062;BMP180;7630;50.306;8.566;2023-09-18T12:16:02;97183.00;;;25.10
15062;BMP180;7630;50.306;8.566;2023-09-18T12:20:07;97200.00;;;25.00
15062;BMP180;7630;50.306;8.566;2023-09-18T12:24:15;97192.00;;;24.60
15062;BMP180;7630;50.306;8.566;2023-09-18T12:28:17;97075.00;;;25.10
15062;BMP180;7630;50.306;8.566;2023-09-18T12:32:18;97191.00;;;25.10
15062;BMP180;7630;50.306;8.566;2023-09-18T12:36:20;97197.00;;;25.20
15062;BMP180;7630;50.306;8.566;2023-09-18T12:44:25;97182.00;;;26.10
15062;BMP180;7630;50.306;8.566;2023-09-18T12:48:26;97180.00;;;25.60
15062;BMP180;7630;50.306;8.566;2023-09-18T12:52:28;97170.00;;;26.00
15062;BMP180;7630;50.306;8.566;2023-09-18T12:56:29;97182.00;;;27.10
15062;BMP180;7630;50.306;8.566;2023-09-18T13:00:31;97188.00;;;27.50
15062;BMP180;7630;50.306;8.566;2023-09-18T13:04:34;97186.00;;;26.60
15062;BMP180;7630;50.306;8.566;2023-09-18T13:08:39;97199.00;;;25.70
15062;BMP180;7630;50.306;8.566;2023-09-18T13:12:45;97212.00;;;25.80
15062;BMP180;7630;50.306;8.566;2023-09-18T13:16:47;97202.00;;;25.90
15062;BMP180;7630;50.306;8.566;2023-09-18T13:20:48;97205.00;;;25.90
15062;BMP180;7630;50.306;8.566;2023-09-18T13:24:57;97274.00;;;24.80
15062;BMP180;7630;50.306;8.566;2023-09-18T13:28:58;97207.00;;;25.10
15062;BMP180;7630;50.306;8.566;2023-09-18T13:33:07;97187.00;;;26.00
15062;BMP180;7630;50.306;8.566;2023-09-18T13:37:09;97198.00;;;24.50
15062;BMP180;7630;50.306;8.566;2023-09-18T13:41:10;97175.00;;;25.00
15062;BMP180;7630;50.306;8.566;2023-09-18T13:45:13;97176.00;;;25.10
15062;BMP180;7630;50.306;8.566;2023-09-18T13:49:16;97178.00;;;24.80
15062;BMP180;7630;50.306;8.566;2023-09-18T13:53:18;97193.00;;;25.10
15062;BMP180;7630;50.306;8.566;2023-09-18T13:57:19;97175.00;;;25.00
15062;BMP180;7630;50.306;8.566;2023-09-18T14:01:22;97180.00;;;25.40
15062;BMP180;7630;50.306;8.566;2023-09-18T14:05:25;97183.00;;;24.90
15062;BMP180;7630;50.306;8.566;2023-09-18T14:09:28;97179.00;;;25.30
15062;BMP180;7630;50.306;8.566;2023-09-18T14:13:29;97173.00;;;24.40
15062;BMP180;7630;50.306;8.566;2023-09-18T14:17:30;97159.00;;;24.20
15062;BMP180;7630;50.306;8.566;2023-09-18T14:21:32;97168.00;;;24.80
15062;BMP180;7630;50.306;8.566;2023-09-18T14:25:34;97159.00;;;25.40
15062;BMP180;7630;50.306;8.566;2023-09-18T14:29:35;97143.00;;;25.90
15062;BMP180;7630;50.306;8.566;2023-09-18T14:33:36;97143.00;;;27.10
15062;BMP180;7630;50.306;8.566;2023-09-18T14:37:38;97127.00;;;27.00
15062;BMP180;7630;50.306;8.566;2023-09-18T14:41:39;97138.00;;;26.60
15062;BMP180;7630;50.306;8.566;2023-09-18T14:45:41;97134.00;;;26.00
15062;BMP180;7630;50.306;8.566;2023-09-18T14:49:42;97132.00;;;25.00
15062;BMP180;7630;50.306;8.566;2023-09-18T14:53:45;97134.00;;;25.60
15062;BMP180;7630;50.306;8.566;2023-09-18T14:57:46;97128.00;;;25.80
15062;BMP180;7630;50.306;8.566;2023-09-18T15:01:47;97117.00;;;25.60
15062;BMP180;7630;50.306;8.566;2023-09-18T15:05:50;97121.00;;;25.30
15062;BMP180;7630;50.306;8.566;2023-09-18T15:09:52;97127.00;;;24.50
15062;BMP180;7630;50.306;8.566;2023-09-18T15:13:53;97117.00;;;25.70
15062;BMP180;7630;50.306;8.566;2023-09-18T15:17:54;97103.00;;;25.90
15062;BMP180;7630;50.306;8.566;2023-09-18T15:21:55;97086.00;;;26.00
15062;BMP180;7630;50.306;8.566;2023-09-18T15:25:58;97085.00;;;24.80
15062;BMP180;7630;50.306;8.566;2023-09-18T15:29:59;97077.00;;;25.00
15062;BMP180;7630;50.306;8.566;2023-09-18T15:34:00;97081.00;;;24.90
15062;BMP180;7630;50.306;8.566;2023-09-18T15:38:02;97079.00;;;24.90
15062;BMP180;7630;50.306;8.566;2023-09-18T15:42:04;97087.00;;;25.00
15062;BMP180;7630;50.306;8.566;2023-09-18T15:46:05;97086.00;;;24.40
15062;BMP180;7630;50.306;8.566;2023-09-18T15:50:07;97087.00;;;24.50
15062;BMP180;7630;50.306;8.566;2023-09-18T15:54:08;97081.00;;;24.60
15062;BMP180;7630;50.306;8.566;2023-09-18T15:58:10;97085.00;;;24.10
15062;BMP180;7630;50.306;8.566;2023-09-18T16:02:11;97083.00;;;24.20
15062;BMP180;7630;50.306;8.566;2023-09-18T16:06:16;97093.00;;;24.10
15062;BMP180;7630;50.306;8.566;2023-09-18T16:10:19;97087.00;;;23.70
15062;BMP180;7630;50.306;8.566;2023-09-18T16:14:20;97090.00;;;23.70
15062;BMP180;7630;50.306;8.566;2023-09-18T16:18:23;97079.00;;;23.50
15062;BMP180;7630;50.306;8.566;2023-09-18T16:22:25;97091.00;;;23.30
15062;BMP180;7630;50.306;8.566;2023-09-18T16:26:28;97085.00;;;23.60
15062;BMP180;7630;50.306;8.566;2023-09-18T16:30:29;97068.00;;;23.80
15062;BMP180;7630;50.306;8.566;2023-09-18T16:34:30;97065.00;;;23.70
15062;BMP180;7630;50.306;8.566;2023-09-18T16:38:31;97072.00;;;23.50
15062;BMP180;7630;50.306;8.566;2023-09-18T16:42:32;97071.00;;;23.20
15062;BMP180;7630;50.306;8.566;2023-09-18T16:46:34;97079.00;;;23.70
15062;BMP180;7630;50.306;8.566;2023-09-18T16:50:37;97114.00;;;23.00
15062;BMP180;7630;50.306;8.566;2023-09-18T16:54:38;97061.00;;;23.10
15062;BMP180;7630;50.306;8.566;2023-09-18T16:58:39;96964.00;;;23.20
15062;BMP180;7630;50.306;8.566;2023-09-18T17:02:40;97060.00;;;23.00
15062;BMP180;7630;50.306;8.566;2023-09-18T17:06:42;97061.00;;;22.70
15062;BMP180;7630;50.306;8.566;2023-09-18T17:10:44;97073.00;;;22.00
15062;BMP180;7630;50.306;8.566;2023-09-18T17:14:45;97062.00;;;22.40
15062;BMP180;7630;50.306;8.566;2023-09-18T17:18:46;97057.00;;;22.40
15062;BMP180;7630;50.306;8.566;2023-09-18T17:22:47;97063.00;;;23.00
15062;BMP180;7630;50.306;8.566;2023-09-18T17:26:49;97068.00;;;23.00
15062;BMP180;7630;50.306;8.566;2023-09-18T17:30:50;97073.00;;;22.90
15062;BMP180;7630;50.306;8.566;2023-09-18T17:34:52;97081.00;;;22.50
15062;BMP180;7630;50.306;8.566;2023-09-18T17:38:54;97087.00;;;23.00
15062;BMP180;7630;50.306;8.566;2023-09-18T17:42:55;97084.00;;;22.70
15062;BMP180;7630;50.306;8.566;2023-09-18T17:46:56;97072.00;;;22.90
15062;BMP180;7630;50.306;8.566;2023-09-18T17:50:57;97068.00;;;23.30
15062;BMP180;7630;50.306;8.566;2023-09-18T17:55:01;97083.00;;;22.90
15062;BMP180;7630;50.306;8.566;2023-09-18T17:59:04;97087.00;;;22.50
15062;BMP180;7630;50.306;8.566;2023-09-18T18:03:08;97080.00;;;22.60
15062;BMP180;7630;50.306;8.566;2023-09-18T18:07:11;97066.00;;;22.90
15062;BMP180;7630;50.306;8.566;2023-09-18T18:11:13;97069.00;;;22.60
15062;BMP180;7630;50.306;8.566;2023-09-18T18:15:14;97073.00;;;22.70
15062;BMP180;7630;50.306;8.566;2023-09-18T18:19:16;97082.00;;;22.80
15062;BMP180;7630;50.306;8.566;2023-09-18T18:23:19;97089.00;;;22.60
15062;BMP180;7630;50.306;8.566;2023-09-18T18:27:20;97086.00;;;22.60
15062;BMP180;7630;50.306;8.566;2023-09-18T18:31:21;97097.00;;;22.70
15062;BMP180;7630;50.306;8.566;2023-09-18T18:35:23;97085.00;;;23.00
15062;BMP180;7630;50.306;8.566;2023-09-18T18:39:25;97081.00;;;22.80
15062;BMP180;7630;50.306;8.566;2023-09-18T18:43:26;97067.00;;;22.50
15062;BMP180;7630;50.306;8.566;2023-09-18T18:47:27;97072.00;;;21.70
15062;BMP180;7630;50.306;8.566;2023-09-18T18:51:28;97074.00;;;22.10
15062;BMP180;7630;50.306;8.566;2023-09-18T18:55:30;97076.00;;;21.40
15062;BMP180;7630;50.306;8.566;2023-09-18T18:59:32;97069.00;;;21.90
15062;BMP180;7630;50.306;8.566;2023-09-18T19:03:34;97081.00;;;21.80
15062;BMP180;7630;50.306;8.566;2023-09-18T19:07:36;97089.00;;;21.50
15062;BMP180;7630;50.306;8.566;2023-09-18T19:11:38;97092.00;;;21.50
15062;BMP180;7630;50.306;8.566;2023-09-18T19:15:39;97085.00;;;21.70
15062;BMP180;7630;50.306;8.566;2023-09-18T19:19:40;97088.00;;;22.60
15062;BMP180;7630;50.306;8.566;2023-09-18T19:23:41;97096.00;;;22.70
15062;BMP180;7630;50.306;8.566;2023-09-18T19:27:44;97097.00;;;22.00
15062;BMP180;7630;50.306;8.566;2023-09-18T19:31:45;97095.00;;;21.40
15062;BMP180;7630;50.306;8.566;2023-09-18T19:35:48;97106.00;;;21.10
15062;BMP180;7630;50.306;8.566;2023-09-18T19:39:50;97103.00;;;21.00
15062;BMP180;7630;50.306;8.566;2023-09-18T19:43:51;97123.00;;;21.60
15062;BMP180;7630;50.306;8.566;2023-09-18T19:47:53;97126.00;;;21.00
15062;BMP180;7630;50.306;8.566;2023-09-18T19:51:54;97116.00;;;21.30
15062;BMP180;7630;50.306;8.566;2023-09-18T19:55:55;97128.00;;;21.90
15062;BMP180;7630;50.306;8.566;2023-09-18T19:59:57;97143.00;;;21.40
15062;BMP180;7630;50.306;8.566;2023-09-18T20:04:00;97145.00;;;21.30
15062;BMP180;7630;50.306;8.566;2023-09-18T20:08:02;97148.00;;;21.20
15062;BMP180;7630;50.306;8.566;2023-09-18T20:12:05;97151.00;;;21.60
15062;BMP180;7630;50.306;8.566;2023-09-18T20:16:08;97162.00;;;21.50
15062;BMP180;7630;50.306;8.566;2023-09-18T20:20:10;97163.00;;;21.40
15062;BMP180;7630;50.306;8.566;2023-09-18T20:24:12;97183.00;;;21.60
15062;BMP180;7630;50.306;8.566;2023-09-18T20:28:13;97190.00;;;21.30
15062;BMP180;7630;50.306;8.566;2023-09-18T20:32:14;97200.00;;;20.70
15062;BMP180;7630;50.306;8.566;2023-09-18T20:36:16;97196.00;;;21.00
15062;BMP180;7630;50.306;8.566;2023-09-18T20:40:19;97218.00;;;21.10
15062;BMP180;7630;50.306;8.566;2023-09-18T20:44:21;97208.00;;;21.40
15062;BMP180;7630;50.306;8.566;2023-09-18T20:48:23;97208.00;;;21.00
15062;BMP180;7630;50.306;8.566;2023-09-18T20:52:24;97213.00;;;20.70
15062;BMP180;7630;50.306;8.566;2023-09-18T20:56:27;97225.00;;;21.20
15062;BMP180;7630;50.306;8.566;2023-09-18T21:00:29;97224.00;;;20.50
15062;BMP180;7630;50.306;8.566;2023-09-18T21:04:30;97223.00;;;20.50
15062;BMP180;7630;50.306;8.566;2023-09-18T21:08:31;97216.00;;;21.00
15062;BMP180;7630;50.306;8.566;2023-09-18T21:12:32;97205.00;;;21.30
15062;BMP180;7630;50.306;8.566;2023-09-18T21:16:34;97200.00;;;21.00
15062;BMP180;7630;50.306;8.566;2023-09-18T21:20:36;97199.00;;;20.80
15062;BMP180;7630;50.306;8.566;2023-09-18T21:24:37;97208.00;;;19.60
15062;BMP180;7630;50.306;8.566;2023-09-18T21:28:39;97233.00;;;18.80
15062;BMP180;7630;50.306;8.566;2023-09-18T21:32:42;97237.00;;;17.90
15062;BMP180;7630;50.306;8.566;2023-09-18T21:36:46;97221.00;;;18.20
15062;BMP180;7630;50.306;8.566;2023-09-18T21:40:47;97218.00;;;18.20
15062;BMP180;7630;50.306;8.566;2023-09-18T21:44:48;97217.00;;;18.60
15062;BMP180;7630;50.306;8.566;2023-09-18T21:48:49;97218.00;;;18.60
15062;BMP180;7630;50.306;8.566;2023-09-18T21:52:51;97222.00;;;19.00
15062;BMP180;7630;50.306;8.566;2023-09-18T21:56:54;97229.00;;;18.60
15062;BMP180;7630;50.306;8.566;2023-09-18T22:05:00;97244.00;;;19.60
15062;BMP180;7630;50.306;8.566;2023-09-18T22:09:01;97252.00;;;19.80
15062;BMP180;7630;50.306;8.566;2023-09-18T22:13:03;97243.00;;;19.50
15062;BMP180;7630;50.306;8.566;2023-09-18T22:17:04;97240.00;;;19.20
15062;BMP180;7630;50.306;8.566;2023-09-18T22:21:05;97227.00;;;19.40
15062;BMP180;7630;50.306;8.566;2023-09-18T22:25:07;97230.00;;;19.50
15062;BMP180;7630;50.306;8.566;2023-09-18T22:29:08;97224.00;;;19.70
15062;BMP180;7630;50.306;8.566;2023-09-18T22:33:10;97223.00;;;19.90
15062;BMP180;7630;50.306;8.566;2023-09-18T22:37:13;97228.00;;;19.40
15062;BMP180;7630;50.306;8.566;2023-09-18T22:54:41;97237.00;;;18.20
15062;BMP180;7630;50.306;8.566;2023-09-18T22:58:39;97240.00;;;18.20
15062;BMP180;7630;50.306;8.566;2023-09-18T23:02:43;97236.00;;;18.50
15062;BMP180;7630;50.306;8.566;2023-09-18T23:06:45;97240.00;;;18.70
15062;BMP180;7630;50.306;8.566;2023-09-18T23:10:47;97246.00;;;18.80
15062;BMP180;7630;50.306;8.566;2023-09-18T23:14:48;97247.00;;;19.00
15062;BMP180;7630;50.306;8.566;2023-09-18T23:18:51;97258.00;;;18.10
15062;BMP180;7630;50.306;8.566;2023-09-18T23:22:53;97254.00;;;18.90
15062;BMP180;7630;50.306;8.566;2023-09-18T23:26:58;97252.00;;;18.60
15062;BMP180;7630;50.306;8.566;2023-09-18T23:31:00;97254.00;;;18.50
15062;BMP180;7630;50.306;8.566;2023-09-18T23:35:02;97248.00;;;18.10
15062;BMP180;7630;50.306;8.566;2023-09-18T23:39:05;97258.00;;;18.20
15062;BMP180;7630;50.306;8.566;2023-09-18T23:43:09;97232.00;;;18.50
15062;BMP180;7630;50.306;8.566;2023-09-18T23:47:11;97254.00;;;18.40
15062;BMP180;7630;50.306;8.566;2023-09-18T23:51:13;97263.00;;;18.20
15062;BMP180;7630;50.306;8.566;2023-09-18T23:55:14;97254.00;;;18.60
15062;BMP180;7630;50.306;8.566;2023-09-18T23:59:17;97257.00;;;18.20
